sensor_id;sensor_type;location;lat;lon;timestamp;P1;durP1;ratioP1;P2;durP2;ratioP2
45909;SDS011;31622;55.416;37.840;2022-10-31T00:00:50;0.40;;;0.20;;
45909;SDS011;31622;55.416;37.840;2022-10-31T00:03:16;0.90;;;0.20;;
45909;SDS011;31622;55.416;37.840;2022-10-31T00:05:43;0.90;;;0.40;;
45909;SDS011;31622;55.416;37.840;2022-10-31T00:08:10;0.63;;;0.40;;
45909;SDS011;31622;55.416;37.840;2022-10-31T00:10:39;0.70;;;0.30;;
45909;SDS011;31622;55.416;37.840;2022-10-31T00:13:06;1.48;;;0.30;;
45909;SDS011;31622;55.416;37.840;2022-10-31T00:15:37;1.10;;;0.22;;
45909;SDS011;31622;55.416;37.840;2022-10-31T00:18:03;0.57;;;0.20;;
45909;SDS011;31622;55.416;37.840;2022-10-31T00:20:30;0.60;;;0.22;;
45909;SDS011;31622;55.416;37.840;2022-10-31T00:22:59;1.00;;;0.35;;
45909;SDS011;31622;55.416;37.840;2022-10-31T00:25:25;0.75;;;0.28;;
45909;SDS011;31622;55.416;37.840;2022-10-31T00:27:52;1.10;;;0.40;;
45909;SDS011;31622;55.416;37.840;2022-10-31T00:30:17;0.77;;;0.20;;
45909;SDS011;31622;55.416;37.840;2022-10-31T00:32:43;0.90;;;0.20;;
45909;SDS011;31622;55.416;37.840;2022-10-31T00:35:09;0.40;;;0.17;;
45909;SDS011;31622;55.416;37.840;2022-10-31T00:37:35;0.77;;;0.20;;
45909;SDS011;31622;55.416;37.840;2022-10-31T00:40:00;1.20;;;0.40;;
45909;SDS011;31622;55.416;37.840;2022-10-31T00:42:26;0.55;;;0.20;;
45909;SDS011;31622;55.416;37.840;2022-10-31T00:44:56;3.70;;;0.43;;
45909;SDS011;31622;55.416;37.840;2022-10-31T00:47:22;0.55;;;0.20;;
45909;SDS011;31622;55.416;37.840;2022-10-31T00:49:48;0.55;;;0.20;;
45909;SDS011;31622;55.416;37.840;2022-10-31T00:52:14;1.23;;;0.25;;
45909;SDS011;31622;55.416;37.840;2022-10-31T00:54:39;0.90;;;0.30;;
45909;SDS011;31622;55.416;37.840;2022-10-31T00:57:05;0.85;;;0.30;;
45909;SDS011;31622;55.416;37.840;2022-10-31T00:59:30;0.38;;;0.20;;
45909;SDS011;31622;55.416;37.840;2022-10-31T01:01:56;1.23;;;0.30;;
45909;SDS011;31622;55.416;37.840;2022-10-31T01:04:22;1.40;;;0.20;;
45909;SDS011;31622;55.416;37.840;2022-10-31T01:06:48;0.90;;;0.20;;
45909;SDS011;31622;55.416;37.840;2022-10-31T01:09:15;1.40;;;0.30;;
45909;SDS011;31622;55.416;37.840;2022-10-31T01:11:41;1.15;;;0.20;;
45909;SDS011;31622;55.416;37.840;2022-10-31T01:14:08;0.57;;;0.35;;
45909;SDS011;31622;55.416;37.840;2022-10-31T01:16:34;0.80;;;0.30;;
45909;SDS011;31622;55.416;37.840;2022-10-31T01:18:59;0.50;;;0.30;;
45909;SDS011;31622;55.416;37.840;2022-10-31T01:21:27;0.98;;;0.30;;
45909;SDS011;31622;55.416;37.840;2022-10-31T01:23:56;1.60;;;0.20;;
45909;SDS011;31622;55.416;37.840;2022-10-31T01:26:23;1.42;;;0.40;;
45909;SDS011;31622;55.416;37.840;2022-10-31T01:28:56;3.10;;;0.40;;
45909;SDS011;31622;55.416;37.840;2022-10-31T01:31:24;5.53;;;0.77;;
45909;SDS011;31622;55.416;37.840;2022-10-31T01:33:55;4.47;;;0.50;;
45909;SDS011;31622;55.416;37.840;2022-10-31T01:36:27;4.60;;;0.50;;
45909;SDS011;31622;55.416;37.840;2022-10-31T01:39:00;3.05;;;0.43;;
45909;SDS011;31622;55.416;37.840;2022-10-31T01:41:29;2.58;;;0.45;;
45909;SDS011;31622;55.416;37.840;2022-10-31T01:43:57;5.38;;;0.63;;
45909;SDS011;31622;55.416;37.840;2022-10-31T01:46:37;3.80;;;0.47;;
45909;SDS011;31622;55.416;37.840;2022-10-31T01:49:26;2.55;;;0.70;;
45909;SDS011;31622;55.416;37.840;2022-10-31T01:51:57;2.95;;;0.30;;
45909;SDS011;31622;55.416;37.840;2022-10-31T01:54:35;1.67;;;0.40;;
45909;SDS011;31622;55.416;37.840;2022-10-31T01:57:04;3.53;;;0.60;;
45909;SDS011;31622;55.416;37.840;2022-10-31T01:59:31;1.77;;;0.30;;
45909;SDS011;31622;55.416;37.840;2022-10-31T02:01:59;0.28;;;0.20;;
45909;SDS011;31622;55.416;37.840;2022-10-31T02:04:25;0.90;;;0.40;;
45909;SDS011;31622;55.416;37.840;2022-10-31T02:06:53;0.40;;;0.20;;
45909;SDS011;31622;55.416;37.840;2022-10-31T02:09:21;1.83;;;0.10;;
45909;SDS011;31622;55.416;37.840;2022-10-31T02:11:49;2.70;;;0.40;;
45909;SDS011;31622;55.416;37.840;2022-10-31T02:14:17;1.85;;;0.30;;
45909;SDS011;31622;55.416;37.840;2022-10-31T02:16:43;1.17;;;0.50;;
45909;SDS011;31622;55.416;37.840;2022-10-31T02:19:10;1.17;;;0.30;;
45909;SDS011;31622;55.416;37.840;2022-10-31T02:24:46;0.70;;;0.30;;
45909;SDS011;31622;55.416;37.840;2022-10-31T02:30:24;0.85;;;0.22;;
45909;SDS011;31622;55.416;37.840;2022-10-31T02:41:01;2.28;;;0.30;;
45909;SDS011;31622;55.416;37.840;2022-10-31T02:44:05;1.33;;;0.40;;
45909;SDS011;31622;55.416;37.840;2022-10-31T02:49:42;0.50;;;0.20;;
45909;SDS011;31622;55.416;37.840;2022-10-31T02:52:26;0.90;;;0.20;;
45909;SDS011;31622;55.416;37.840;2022-10-31T02:55:08;0.90;;;0.20;;
45909;SDS011;31622;55.416;37.840;2022-10-31T03:03:34;1.25;;;0.65;;
45909;SDS011;31622;55.416;37.840;2022-10-31T03:06:30;0.60;;;0.30;;
45909;SDS011;31622;55.416;37.840;2022-10-31T03:17:05;1.00;;;0.30;;
45909;SDS011;31622;55.416;37.840;2022-10-31T03:19:41;1.27;;;0.40;;
45909;SDS011;31622;55.416;37.840;2022-10-31T03:22:15;1.13;;;0.30;;
45909;SDS011;31622;55.416;37.840;2022-10-31T03:24:43;1.00;;;0.22;;
45909;SDS011;31622;55.416;37.840;2022-10-31T03:27:09;1.05;;;0.30;;
45909;SDS011;31622;55.416;37.840;2022-10-31T03:29:37;0.73;;;0.28;;
45909;SDS011;31622;55.416;37.840;2022-10-31T03:32:08;0.52;;;0.25;;
45909;SDS011;31622;55.416;37.840;2022-10-31T03:34:36;0.60;;;0.40;;
45909;SDS011;31622;55.416;37.840;2022-10-31T03:37:04;0.47;;;0.22;;
45909;SDS011;31622;55.416;37.840;2022-10-31T03:39:32;1.48;;;0.20;;
45909;SDS011;31622;55.416;37.840;2022-10-31T03:42:09;1.05;;;0.30;;
45909;SDS011;31622;55.416;37.840;2022-10-31T03:44:36;0.90;;;0.35;;
45909;SDS011;31622;55.416;37.840;2022-10-31T03:47:04;1.35;;;0.40;;
45909;SDS011;31622;55.416;37.840;2022-10-31T03:49:30;0.70;;;0.30;;
45909;SDS011;31622;55.416;37.840;2022-10-31T03:57:06;0.75;;;0.35;;
45909;SDS011;31622;55.416;37.840;2022-10-31T03:59:42;0.63;;;0.30;;
45909;SDS011;31622;55.416;37.840;2022-10-31T04:02:15;1.17;;;0.20;;
45909;SDS011;31622;55.416;37.840;2022-10-31T04:04:43;0.63;;;0.20;;
45909;SDS011;31622;55.416;37.840;2022-10-31T04:07:11;0.90;;;0.38;;
45909;SDS011;31622;55.416;37.840;2022-10-31T04:09:38;1.42;;;0.40;;
45909;SDS011;31622;55.416;37.840;2022-10-31T04:12:07;3.20;;;0.40;;
45909;SDS011;31622;55.416;37.840;2022-10-31T04:14:52;0.75;;;0.30;;
45909;SDS011;31622;55.416;37.840;2022-10-31T04:17:18;0.70;;;0.28;;
45909;SDS011;31622;55.416;37.840;2022-10-31T04:19:45;3.03;;;0.50;;
45909;SDS011;31622;55.416;37.840;2022-10-31T04:22:11;0.60;;;0.28;;
45909;SDS011;31622;55.416;37.840;2022-10-31T04:24:38;0.40;;;0.20;;
45909;SDS011;31622;55.416;37.840;2022-10-31T04:27:04;2.40;;;0.40;;
45909;SDS011;31622;55.416;37.840;2022-10-31T04:29:31;0.50;;;0.25;;
45909;SDS011;31622;55.416;37.840;2022-10-31T04:31:57;0.82;;;0.32;;
45909;SDS011;31622;55.416;37.840;2022-10-31T04:34:22;2.83;;;0.40;;
45909;SDS011;31622;55.416;37.840;2022-10-31T04:36:49;3.25;;;0.63;;
45909;SDS011;31622;55.416;37.840;2022-10-31T04:39:16;2.85;;;0.32;;
45909;SDS011;31622;55.416;37.840;2022-10-31T04:42:03;4.63;;;1.58;;
45909;SDS011;31622;55.416;37.840;2022-10-31T04:44:30;10.10;;;3.40;;
45909;SDS011;31622;55.416;37.840;2022-10-31T04:46:59;8.73;;;3.38;;
45909;SDS011;31622;55.416;37.840;2022-10-31T04:49:25;10.10;;;3.05;;
45909;SDS011;31622;55.416;37.840;2022-10-31T04:51:51;9.57;;;2.85;;
45909;SDS011;31622;55.416;37.840;2022-10-31T04:54:17;5.00;;;2.15;;
45909;SDS011;31622;55.416;37.840;2022-10-31T04:57:09;9.13;;;2.67;;
45909;SDS011;31622;55.416;37.840;2022-10-31T04:59:35;12.57;;;2.65;;
45909;SDS011;31622;55.416;37.840;2022-10-31T05:02:02;5.55;;;1.65;;
45909;SDS011;31622;55.416;37.840;2022-10-31T05:04:48;6.60;;;1.63;;
45909;SDS011;31622;55.416;37.840;2022-10-31T05:07:14;8.18;;;1.65;;
45909;SDS011;31622;55.416;37.840;2022-10-31T05:09:42;5.22;;;1.50;;
45909;SDS011;31622;55.416;37.840;2022-10-31T05:12:07;6.60;;;1.83;;
45909;SDS011;31622;55.416;37.840;2022-10-31T05:14:51;15.45;;;1.88;;
45909;SDS011;31622;55.416;37.840;2022-10-31T05:17:46;3.35;;;1.13;;
45909;SDS011;31622;55.416;37.840;2022-10-31T05:20:30;5.53;;;1.40;;
45909;SDS011;31622;55.416;37.840;2022-10-31T05:23:16;5.30;;;1.30;;
45909;SDS011;31622;55.416;37.840;2022-10-31T05:25:42;2.13;;;0.82;;
45909;SDS011;31622;55.416;37.840;2022-10-31T05:28:08;2.35;;;0.82;;
45909;SDS011;31622;55.416;37.840;2022-10-31T05:30:36;2.95;;;0.90;;
45909;SDS011;31622;55.416;37.840;2022-10-31T05:33:03;2.47;;;0.90;;
45909;SDS011;31622;55.416;37.840;2022-10-31T05:35:41;5.32;;;0.93;;
45909;SDS011;31622;55.416;37.840;2022-10-31T05:38:25;1.83;;;1.00;;
45909;SDS011;31622;55.416;37.840;2022-10-31T05:40:55;3.67;;;1.23;;
45909;SDS011;31622;55.416;37.840;2022-10-31T05:43:23;2.67;;;0.88;;
45909;SDS011;31622;55.416;37.840;2022-10-31T05:45:51;2.05;;;0.70;;
45909;SDS011;31622;55.416;37.840;2022-10-31T05:48:38;2.40;;;0.70;;
45909;SDS011;31622;55.416;37.840;2022-10-31T05:51:26;1.48;;;0.65;;
45909;SDS011;31622;55.416;37.840;2022-10-31T05:53:52;2.05;;;1.15;;
45909;SDS011;31622;55.416;37.840;2022-10-31T05:56:18;2.95;;;1.25;;
45909;SDS011;31622;55.416;37.840;2022-10-31T05:58:43;3.08;;;0.80;;
45909;SDS011;31622;55.416;37.840;2022-10-31T06:01:09;3.20;;;0.95;;
45909;SDS011;31622;55.416;37.840;2022-10-31T06:03:36;3.35;;;0.90;;
45909;SDS011;31622;55.416;37.840;2022-10-31T06:06:04;3.30;;;0.70;;
45909;SDS011;31622;55.416;37.840;2022-10-31T06:08:40;2.33;;;0.80;;
45909;SDS011;31622;55.416;37.840;2022-10-31T06:14:04;2.90;;;1.17;;
45909;SDS011;31622;55.416;37.840;2022-10-31T06:16:50;2.65;;;1.50;;
45909;SDS011;31622;55.416;37.840;2022-10-31T06:19:35;2.47;;;1.52;;
45909;SDS011;31622;55.416;37.840;2022-10-31T06:22:01;3.20;;;1.38;;
45909;SDS011;31622;55.416;37.840;2022-10-31T06:24:27;3.55;;;1.77;;
45909;SDS011;31622;55.416;37.840;2022-10-31T06:26:59;2.97;;;1.50;;
45909;SDS011;31622;55.416;37.840;2022-10-31T06:29:25;3.70;;;1.42;;
45909;SDS011;31622;55.416;37.840;2022-10-31T06:32:13;3.67;;;1.75;;
45909;SDS011;31622;55.416;37.840;2022-10-31T06:34:42;3.40;;;1.63;;
45909;SDS011;31622;55.416;37.840;2022-10-31T06:37:09;5.07;;;1.90;;
45909;SDS011;31622;55.416;37.840;2022-10-31T06:39:38;3.50;;;1.67;;
45909;SDS011;31622;55.416;37.840;2022-10-31T06:42:04;4.22;;;1.83;;
45909;SDS011;31622;55.416;37.840;2022-10-31T06:44:31;3.50;;;1.70;;
45909;SDS011;31622;55.416;37.840;2022-10-31T06:47:15;4.80;;;1.80;;
45909;SDS011;31622;55.416;37.840;2022-10-31T06:50:04;6.30;;;2.03;;
45909;SDS011;31622;55.416;37.840;2022-10-31T06:52:30;6.57;;;2.15;;
45909;SDS011;31622;55.416;37.840;2022-10-31T06:54:56;3.35;;;1.92;;
45909;SDS011;31622;55.416;37.840;2022-10-31T06:57:22;4.93;;;2.00;;
45909;SDS011;31622;55.416;37.840;2022-10-31T06:59:48;6.00;;;1.95;;
45909;SDS011;31622;55.416;37.840;2022-10-31T07:02:29;5.25;;;1.80;;
45909;SDS011;31622;55.416;37.840;2022-10-31T07:04:55;5.28;;;2.13;;
45909;SDS011;31622;55.416;37.840;2022-10-31T07:07:22;6.53;;;1.90;;
45909;SDS011;31622;55.416;37.840;2022-10-31T07:09:49;6.18;;;2.10;;
45909;SDS011;31622;55.416;37.840;2022-10-31T07:12:18;3.05;;;1.85;;
45909;SDS011;31622;55.416;37.840;2022-10-31T07:14:53;5.35;;;1.63;;
45909;SDS011;31622;55.416;37.840;2022-10-31T07:17:19;4.03;;;1.58;;
45909;SDS011;31622;55.416;37.840;2022-10-31T07:19:52;6.22;;;1.60;;
45909;SDS011;31622;55.416;37.840;2022-10-31T07:22:18;4.03;;;1.67;;
45909;SDS011;31622;55.416;37.840;2022-10-31T07:24:43;4.50;;;1.80;;
45909;SDS011;31622;55.416;37.840;2022-10-31T07:27:18;5.15;;;1.80;;
45909;SDS011;31622;55.416;37.840;2022-10-31T07:29:45;4.25;;;1.40;;
45909;SDS011;31622;55.416;37.840;2022-10-31T07:32:11;5.65;;;1.10;;
45909;SDS011;31622;55.416;37.840;2022-10-31T07:34:44;2.47;;;1.05;;
45909;SDS011;31622;55.416;37.840;2022-10-31T07:37:38;2.33;;;1.00;;
45909;SDS011;31622;55.416;37.840;2022-10-31T07:40:05;3.35;;;1.30;;
45909;SDS011;31622;55.416;37.840;2022-10-31T07:42:35;3.20;;;0.88;;
45909;SDS011;31622;55.416;37.840;2022-10-31T07:45:02;3.65;;;1.30;;
45909;SDS011;31622;55.416;37.840;2022-10-31T07:48:04;3.27;;;1.10;;
45909;SDS011;31622;55.416;37.840;2022-10-31T07:50:48;2.60;;;1.00;;
45909;SDS011;31622;55.416;37.840;2022-10-31T07:53:20;1.90;;;1.00;;
45909;SDS011;31622;55.416;37.840;2022-10-31T07:55:50;2.33;;;0.80;;
45909;SDS011;31622;55.416;37.840;2022-10-31T07:58:17;2.25;;;1.02;;
45909;SDS011;31622;55.416;37.840;2022-10-31T08:00:44;1.83;;;1.00;;
45909;SDS011;31622;55.416;37.840;2022-10-31T08:03:15;1.80;;;0.90;;
45909;SDS011;31622;55.416;37.840;2022-10-31T08:06:01;1.70;;;1.02;;
45909;SDS011;31622;55.416;37.840;2022-10-31T08:08:45;1.88;;;1.17;;
45909;SDS011;31622;55.416;37.840;2022-10-31T08:11:10;3.67;;;1.10;;
45909;SDS011;31622;55.416;37.840;2022-10-31T08:13:37;2.17;;;0.90;;
45909;SDS011;31622;55.416;37.840;2022-10-31T08:16:03;1.67;;;0.88;;
45909;SDS011;31622;55.416;37.840;2022-10-31T08:18:32;2.05;;;0.80;;
45909;SDS011;31622;55.416;37.840;2022-10-31T08:20:58;2.65;;;0.77;;
45909;SDS011;31622;55.416;37.840;2022-10-31T08:23:23;3.70;;;0.90;;
45909;SDS011;31622;55.416;37.840;2022-10-31T08:25:52;3.65;;;0.90;;
45909;SDS011;31622;55.416;37.840;2022-10-31T08:28:17;2.45;;;0.85;;
45909;SDS011;31622;55.416;37.840;2022-10-31T08:30:46;4.32;;;0.85;;
45909;SDS011;31622;55.416;37.840;2022-10-31T08:33:44;2.05;;;0.82;;
45909;SDS011;31622;55.416;37.840;2022-10-31T08:36:29;2.38;;;1.00;;
45909;SDS011;31622;55.416;37.840;2022-10-31T08:38:57;8.18;;;1.10;;
45909;SDS011;31622;55.416;37.840;2022-10-31T08:41:23;2.35;;;1.10;;
45909;SDS011;31622;55.416;37.840;2022-10-31T08:43:49;2.05;;;1.10;;
45909;SDS011;31622;55.416;37.840;2022-10-31T08:46:15;3.88;;;1.27;;
45909;SDS011;31622;55.416;37.840;2022-10-31T08:48:42;5.75;;;1.10;;
45909;SDS011;31622;55.416;37.840;2022-10-31T08:51:09;3.95;;;1.13;;
45909;SDS011;31622;55.416;37.840;2022-10-31T08:53:35;2.97;;;0.70;;
45909;SDS011;31622;55.416;37.840;2022-10-31T08:56:24;7.43;;;1.38;;
45909;SDS011;31622;55.416;37.840;2022-10-31T08:58:50;5.75;;;1.40;;
45909;SDS011;31622;55.416;37.840;2022-10-31T09:01:23;3.63;;;1.02;;
45909;SDS011;31622;55.416;37.840;2022-10-31T09:03:49;7.05;;;1.23;;
45909;SDS011;31622;55.416;37.840;2022-10-31T09:06:14;9.13;;;1.35;;
45909;SDS011;31622;55.416;37.840;2022-10-31T09:08:40;8.05;;;1.40;;
45909;SDS011;31622;55.416;37.840;2022-10-31T09:11:06;3.80;;;1.00;;
45909;SDS011;31622;55.416;37.840;2022-10-31T09:14:01;4.78;;;1.10;;
45909;SDS011;31622;55.416;37.840;2022-10-31T09:16:45;5.25;;;1.00;;
45909;SDS011;31622;55.416;37.840;2022-10-31T09:19:18;2.53;;;0.80;;
45909;SDS011;31622;55.416;37.840;2022-10-31T09:21:45;3.75;;;0.80;;
45909;SDS011;31622;55.416;37.840;2022-10-31T09:24:11;4.35;;;0.70;;
45909;SDS011;31622;55.416;37.840;2022-10-31T09:26:37;3.53;;;1.13;;
45909;SDS011;31622;55.416;37.840;2022-10-31T09:29:16;2.63;;;1.02;;
45909;SDS011;31622;55.416;37.840;2022-10-31T09:31:42;2.63;;;0.70;;
45909;SDS011;31622;55.416;37.840;2022-10-31T09:34:43;6.13;;;0.70;;
45909;SDS011;31622;55.416;37.840;2022-10-31T09:37:10;2.75;;;0.88;;
45909;SDS011;31622;55.416;37.840;2022-10-31T09:39:36;7.18;;;1.15;;
45909;SDS011;31622;55.416;37.840;2022-10-31T09:45:03;3.08;;;0.80;;
45909;SDS011;31622;55.416;37.840;2022-10-31T09:47:52;2.53;;;0.77;;
45909;SDS011;31622;55.416;37.840;2022-10-31T09:50:50;2.28;;;0.90;;
45909;SDS011;31622;55.416;37.840;2022-10-31T09:53:48;1.63;;;0.75;;
45909;SDS011;31622;55.416;37.840;2022-10-31T09:56:21;2.92;;;0.60;;
45909;SDS011;31622;55.416;37.840;2022-10-31T09:58:53;2.15;;;0.90;;
45909;SDS011;31622;55.416;37.840;2022-10-31T10:01:25;1.35;;;0.70;;
45909;SDS011;31622;55.416;37.840;2022-10-31T10:03:59;1.48;;;0.70;;
45909;SDS011;31622;55.416;37.840;2022-10-31T10:06:52;3.60;;;1.52;;
45909;SDS011;31622;55.416;37.840;2022-10-31T10:09:50;1.65;;;0.77;;
45909;SDS011;31622;55.416;37.840;2022-10-31T10:13:03;3.15;;;1.02;;
45909;SDS011;31622;55.416;37.840;2022-10-31T10:15:44;2.28;;;0.73;;
45909;SDS011;31622;55.416;37.840;2022-10-31T10:18:26;2.72;;;0.93;;
45909;SDS011;31622;55.416;37.840;2022-10-31T10:30:00;4.50;;;0.80;;
45909;SDS011;31622;55.416;37.840;2022-10-31T10:32:28;1.60;;;0.68;;
45909;SDS011;31622;55.416;37.840;2022-10-31T10:38:12;2.60;;;1.08;;
45909;SDS011;31622;55.416;37.840;2022-10-31T10:40:56;7.10;;;1.92;;
45909;SDS011;31622;55.416;37.840;2022-10-31T10:43:30;6.03;;;2.10;;
45909;SDS011;31622;55.416;37.840;2022-10-31T10:49:17;5.72;;;1.75;;
45909;SDS011;31622;55.416;37.840;2022-10-31T10:52:07;6.75;;;1.55;;
45909;SDS011;31622;55.416;37.840;2022-10-31T10:57:58;5.25;;;1.50;;
45909;SDS011;31622;55.416;37.840;2022-10-31T11:00:27;2.38;;;1.20;;
45909;SDS011;31622;55.416;37.840;2022-10-31T11:02:56;3.03;;;0.98;;
45909;SDS011;31622;55.416;37.840;2022-10-31T11:05:26;5.03;;;1.20;;
45909;SDS011;31622;55.416;37.840;2022-10-31T11:07:55;3.42;;;1.10;;
45909;SDS011;31622;55.416;37.840;2022-10-31T11:10:21;3.08;;;1.05;;
45909;SDS011;31622;55.416;37.840;2022-10-31T11:15:51;2.63;;;1.08;;
45909;SDS011;31622;55.416;37.840;2022-10-31T11:18:29;2.13;;;0.98;;
45909;SDS011;31622;55.416;37.840;2022-10-31T11:20:57;3.53;;;0.90;;
45909;SDS011;31622;55.416;37.840;2022-10-31T11:23:25;4.18;;;0.75;;
45909;SDS011;31622;55.416;37.840;2022-10-31T11:28:29;1.30;;;0.73;;
45909;SDS011;31622;55.416;37.840;2022-10-31T11:30:59;1.25;;;0.70;;
45909;SDS011;31622;55.416;37.840;2022-10-31T11:36:13;1.38;;;0.60;;
45909;SDS011;31622;55.416;37.840;2022-10-31T11:38:40;2.42;;;0.80;;
45909;SDS011;31622;55.416;37.840;2022-10-31T11:43:54;2.90;;;0.80;;
45909;SDS011;31622;55.416;37.840;2022-10-31T11:46:30;2.35;;;0.70;;
45909;SDS011;31622;55.416;37.840;2022-10-31T11:48:58;2.22;;;0.60;;
45909;SDS011;31622;55.416;37.840;2022-10-31T11:51:24;3.17;;;0.85;;
45909;SDS011;31622;55.416;37.840;2022-10-31T11:53:55;2.33;;;0.68;;
45909;SDS011;31622;55.416;37.840;2022-10-31T11:56:23;1.80;;;0.90;;
45909;SDS011;31622;55.416;37.840;2022-10-31T11:59:03;1.77;;;0.70;;
45909;SDS011;31622;55.416;37.840;2022-10-31T12:01:31;2.78;;;0.70;;
45909;SDS011;31622;55.416;37.840;2022-10-31T12:04:07;3.85;;;1.15;;
45909;SDS011;31622;55.416;37.840;2022-10-31T12:06:35;12.82;;;2.70;;
45909;SDS011;31622;55.416;37.840;2022-10-31T12:09:09;12.32;;;2.45;;
45909;SDS011;31622;55.416;37.840;2022-10-31T12:17:20;8.70;;;2.47;;
45909;SDS011;31622;55.416;37.840;2022-10-31T12:46:43;8.50;;;1.92;;
45909;SDS011;31622;55.416;37.840;2022-10-31T12:49:54;5.72;;;1.02;;
45909;SDS011;31622;55.416;37.840;2022-10-31T12:53:00;7.28;;;1.13;;
45909;SDS011;31622;55.416;37.840;2022-10-31T13:01:30;3.53;;;0.98;;
45909;SDS011;31622;55.416;37.840;2022-10-31T13:04:05;4.60;;;1.20;;
45909;SDS011;31622;55.416;37.840;2022-10-31T13:06:38;3.55;;;0.80;;
45909;SDS011;31622;55.416;37.840;2022-10-31T13:09:08;2.25;;;0.80;;
45909;SDS011;31622;55.416;37.840;2022-10-31T13:11:40;2.35;;;0.80;;
45909;SDS011;31622;55.416;37.840;2022-10-31T13:14:11;3.25;;;0.70;;
45909;SDS011;31622;55.416;37.840;2022-10-31T13:16:41;4.05;;;0.70;;
45909;SDS011;31622;55.416;37.840;2022-10-31T13:22:00;2.00;;;0.60;;
45909;SDS011;31622;55.416;37.840;2022-10-31T13:27:11;2.83;;;0.80;;
45909;SDS011;31622;55.416;37.840;2022-10-31T13:29:42;2.78;;;0.63;;
45909;SDS011;31622;55.416;37.840;2022-10-31T13:32:16;3.33;;;0.45;;
45909;SDS011;31622;55.416;37.840;2022-10-31T13:34:44;3.25;;;0.55;;
45909;SDS011;31622;55.416;37.840;2022-10-31T13:45:20;1.63;;;0.52;;
45909;SDS011;31622;55.416;37.840;2022-10-31T13:47:58;1.42;;;0.63;;
45909;SDS011;31622;55.416;37.840;2022-10-31T13:50:28;3.15;;;0.93;;
45909;SDS011;31622;55.416;37.840;2022-10-31T13:58:57;2.10;;;0.60;;
45909;SDS011;31622;55.416;37.840;2022-10-31T14:01:36;2.80;;;0.73;;
45909;SDS011;31622;55.416;37.840;2022-10-31T14:04:03;5.13;;;0.70;;
45909;SDS011;31622;55.416;37.840;2022-10-31T14:06:37;5.00;;;0.80;;
45909;SDS011;31622;55.416;37.840;2022-10-31T14:09:26;2.08;;;0.70;;
45909;SDS011;31622;55.416;37.840;2022-10-31T14:11:54;2.58;;;0.70;;
45909;SDS011;31622;55.416;37.840;2022-10-31T14:14:20;3.03;;;0.85;;
45909;SDS011;31622;55.416;37.840;2022-10-31T14:16:52;0.82;;;0.40;;
45909;SDS011;31622;55.416;37.840;2022-10-31T14:19:20;3.30;;;1.20;;
45909;SDS011;31622;55.416;37.840;2022-10-31T14:21:47;2.15;;;0.43;;
45909;SDS011;31622;55.416;37.840;2022-10-31T14:24:35;3.28;;;0.77;;
45909;SDS011;31622;55.416;37.840;2022-10-31T14:29:49;2.50;;;0.55;;
45909;SDS011;31622;55.416;37.840;2022-10-31T14:32:20;1.95;;;0.70;;
45909;SDS011;31622;55.416;37.840;2022-10-31T14:39:49;1.40;;;0.60;;
45909;SDS011;31622;55.416;37.840;2022-10-31T14:53:02;1.83;;;0.50;;
45909;SDS011;31622;55.416;37.840;2022-10-31T14:55:29;3.03;;;0.60;;
45909;SDS011;31622;55.416;37.840;2022-10-31T14:58:03;2.92;;;0.65;;
45909;SDS011;31622;55.416;37.840;2022-10-31T15:00:32;4.07;;;0.80;;
45909;SDS011;31622;55.416;37.840;2022-10-31T15:03:12;2.53;;;0.68;;
45909;SDS011;31622;55.416;37.840;2022-10-31T15:08:13;3.65;;;0.85;;
45909;SDS011;31622;55.416;37.840;2022-10-31T15:11:03;1.17;;;0.63;;
45909;SDS011;31622;55.416;37.840;2022-10-31T15:13:50;4.75;;;1.20;;
45909;SDS011;31622;55.416;37.840;2022-10-31T15:19:04;4.35;;;0.63;;
45909;SDS011;31622;55.416;37.840;2022-10-31T15:21:31;0.90;;;0.45;;
45909;SDS011;31622;55.416;37.840;2022-10-31T15:23:57;2.30;;;0.70;;
45909;SDS011;31622;55.416;37.840;2022-10-31T15:26:35;2.30;;;0.50;;
45909;SDS011;31622;55.416;37.840;2022-10-31T15:29:10;1.75;;;0.57;;
45909;SDS011;31622;55.416;37.840;2022-10-31T15:31:37;3.78;;;0.60;;
45909;SDS011;31622;55.416;37.840;2022-10-31T15:34:04;2.75;;;0.60;;
45909;SDS011;31622;55.416;37.840;2022-10-31T15:36:32;0.82;;;0.45;;
45909;SDS011;31622;55.416;37.840;2022-10-31T15:38:58;3.65;;;0.60;;
45909;SDS011;31622;55.416;37.840;2022-10-31T15:41:34;5.40;;;0.75;;
45909;SDS011;31622;55.416;37.840;2022-10-31T15:44:10;6.40;;;0.75;;
45909;SDS011;31622;55.416;37.840;2022-10-31T15:46:41;3.60;;;0.40;;
45909;SDS011;31622;55.416;37.840;2022-10-31T15:49:12;2.13;;;0.60;;
45909;SDS011;31622;55.416;37.840;2022-10-31T15:51:52;1.80;;;0.40;;
45909;SDS011;31622;55.416;37.840;2022-10-31T15:54:17;4.72;;;0.98;;
45909;SDS011;31622;55.416;37.840;2022-10-31T15:56:43;2.60;;;0.70;;
45909;SDS011;31622;55.416;37.840;2022-10-31T15:59:16;3.17;;;0.60;;
45909;SDS011;31622;55.416;37.840;2022-10-31T16:01:55;3.67;;;0.73;;
45909;SDS011;31622;55.416;37.840;2022-10-31T16:04:24;1.38;;;0.60;;
45909;SDS011;31622;55.416;37.840;2022-10-31T16:07:00;1.00;;;0.50;;
45909;SDS011;31622;55.416;37.840;2022-10-31T16:09:27;3.90;;;0.43;;
45909;SDS011;31622;55.416;37.840;2022-10-31T16:11:54;2.95;;;0.60;;
45909;SDS011;31622;55.416;37.840;2022-10-31T16:14:24;1.27;;;0.50;;
45909;SDS011;31622;55.416;37.840;2022-10-31T16:16:56;3.28;;;0.50;;
45909;SDS011;31622;55.416;37.840;2022-10-31T16:22:04;3.28;;;0.60;;
45909;SDS011;31622;55.416;37.840;2022-10-31T16:24:33;0.82;;;0.47;;
45909;SDS011;31622;55.416;37.840;2022-10-31T16:27:22;3.75;;;0.80;;
45909;SDS011;31622;55.416;37.840;2022-10-31T16:29:54;1.73;;;0.70;;
45909;SDS011;31622;55.416;37.840;2022-10-31T16:37:37;2.83;;;0.60;;
45909;SDS011;31622;55.416;37.840;2022-10-31T16:40:04;3.00;;;0.70;;
45909;SDS011;31622;55.416;37.840;2022-10-31T16:42:30;3.10;;;0.75;;
45909;SDS011;31622;55.416;37.840;2022-10-31T16:44:55;4.55;;;0.68;;
45909;SDS011;31622;55.416;37.840;2022-10-31T16:47:21;2.58;;;0.70;;
45909;SDS011;31622;55.416;37.840;2022-10-31T16:49:47;2.55;;;0.70;;
45909;SDS011;31622;55.416;37.840;2022-10-31T16:52:14;5.95;;;0.70;;
45909;SDS011;31622;55.416;37.840;2022-10-31T16:54:43;4.43;;;0.98;;
45909;SDS011;31622;55.416;37.840;2022-10-31T16:57:12;2.10;;;0.60;;
45909;SDS011;31622;55.416;37.840;2022-10-31T16:59:40;1.70;;;0.70;;
45909;SDS011;31622;55.416;37.840;2022-10-31T17:02:06;8.18;;;1.23;;
45909;SDS011;31622;55.416;37.840;2022-10-31T17:04:39;2.28;;;0.80;;
45909;SDS011;31622;55.416;37.840;2022-10-31T17:07:04;0.95;;;0.50;;
45909;SDS011;31622;55.416;37.840;2022-10-31T17:09:30;2.83;;;0.45;;
45909;SDS011;31622;55.416;37.840;2022-10-31T17:11:56;1.05;;;0.63;;
45909;SDS011;31622;55.416;37.840;2022-10-31T17:14:21;1.88;;;0.57;;
45909;SDS011;31622;55.416;37.840;2022-10-31T17:16:47;1.73;;;0.60;;
45909;SDS011;31622;55.416;37.840;2022-10-31T17:19:13;2.53;;;0.98;;
45909;SDS011;31622;55.416;37.840;2022-10-31T17:21:39;3.45;;;1.45;;
45909;SDS011;31622;55.416;37.840;2022-10-31T17:24:05;1.70;;;0.45;;
45909;SDS011;31622;55.416;37.840;2022-10-31T17:26:33;6.72;;;0.68;;
45909;SDS011;31622;55.416;37.840;2022-10-31T17:28:58;4.63;;;0.70;;
45909;SDS011;31622;55.416;37.840;2022-10-31T17:31:27;1.75;;;0.55;;
45909;SDS011;31622;55.416;37.840;2022-10-31T17:33:55;2.58;;;0.50;;
45909;SDS011;31622;55.416;37.840;2022-10-31T17:36:21;1.10;;;0.32;;
45909;SDS011;31622;55.416;37.840;2022-10-31T17:38:47;2.75;;;0.73;;
45909;SDS011;31622;55.416;37.840;2022-10-31T17:41:14;3.28;;;0.60;;